createdAt,value
2023-02-04T00:51:48.225Z,19.51
2023-02-04T00:53:48.110Z,19.51
2023-02-04T00:54:48.115Z,19.51
2023-02-04T00:55:48.137Z,19.52
2023-02-04T00:56:48.151Z,19.52
2023-02-04T00:57:48.172Z,19.52
2023-02-04T00:58:48.177Z,19.51
2023-02-04T00:59:48.215Z,19.51
2023-02-04T01:00:48.341Z,19.51
2023-02-04T01:01:48.248Z,19.52
2023-02-04T01:02:48.298Z,19.51
2023-02-04T01:03:48.288Z,19.52
2023-02-04T01:04:48.305Z,19.50
2023-02-04T01:05:48.333Z,19.51
2023-02-04T01:06:48.349Z,19.51
2023-02-04T01:07:48.357Z,19.51
2023-02-04T01:08:48.377Z,19.51
2023-02-04T01:09:48.390Z,19.51
2023-02-04T01:10:48.410Z,19.51
2023-02-04T01:11:48.426Z,19.51
2023-02-04T01:12:48.446Z,19.51
2023-02-04T01:13:48.459Z,19.51
2023-02-04T01:14:48.472Z,19.51
2023-02-04T01:15:48.497Z,19.51
2023-02-04T01:16:48.555Z,19.51
2023-02-04T01:17:48.531Z,19.51
2023-02-04T01:18:48.555Z,19.51
2023-02-04T01:19:48.550Z,19.51
2023-02-04T01:20:48.566Z,19.51
2023-02-04T01:21:49.199Z,19.51
2023-02-04T01:22:48.600Z,19.52
2023-02-04T01:23:48.609Z,19.52
2023-02-04T01:24:48.628Z,19.52
2023-02-04T01:25:48.632Z,19.52
2023-02-04T01:26:48.662Z,19.52
2023-02-04T01:27:48.680Z,19.52
2023-02-04T01:28:48.688Z,19.52
2023-02-04T01:29:48.712Z,19.51
2023-02-04T01:30:48.784Z,19.51
2023-02-04T01:31:48.772Z,19.51
2023-02-04T01:32:48.773Z,19.51
2023-02-04T01:33:48.800Z,19.51
2023-02-04T01:34:48.808Z,19.51
2023-02-04T01:35:48.824Z,19.51
2023-02-04T01:36:48.852Z,19.52
2023-02-04T01:37:48.872Z,19.51
2023-02-04T01:38:48.876Z,19.51
2023-02-04T01:39:48.888Z,19.51
2023-02-04T01:40:48.908Z,19.50
2023-02-04T01:41:48.920Z,19.51
2023-02-04T01:42:48.937Z,19.51
2023-02-04T01:43:48.961Z,19.51
2023-02-04T01:44:48.963Z,19.51
2023-02-04T01:45:49.025Z,19.51
2023-02-04T01:46:49.714Z,19.50
2023-02-04T01:47:49.010Z,19.50
2023-02-04T01:48:49.030Z,19.50
2023-02-04T01:49:49.043Z,19.50
2023-02-04T01:50:49.051Z,19.50
2023-02-04T01:51:49.061Z,19.51
2023-02-04T01:52:49.092Z,19.51
2023-02-04T01:53:49.097Z,19.52
2023-02-04T01:54:49.117Z,19.51
2023-02-04T01:55:49.132Z,19.51
2023-02-04T01:56:49.156Z,19.50
2023-02-04T01:57:49.188Z,19.50
2023-02-04T01:58:49.188Z,19.51
2023-02-04T01:59:49.225Z,19.51
2023-02-04T02:00:49.239Z,19.51
2023-02-04T02:01:49.257Z,19.50
2023-02-04T02:02:49.264Z,19.50
2023-02-04T02:03:49.411Z,19.51
2023-02-04T02:04:49.298Z,19.51
2023-02-04T02:05:49.325Z,19.51
2023-02-04T02:06:49.337Z,19.52
2023-02-04T02:07:49.363Z,19.51
2023-02-04T02:08:49.391Z,19.51
2023-02-04T02:09:49.414Z,19.51
2023-02-04T02:10:49.464Z,19.51
2023-02-04T02:11:49.462Z,19.50
2023-02-04T02:12:49.486Z,19.51
2023-02-04T02:13:49.482Z,19.50
2023-02-04T02:14:49.502Z,19.50
2023-02-04T02:15:49.517Z,19.50
2023-02-04T02:16:49.584Z,19.51
2023-02-04T02:17:49.566Z,19.50
2023-02-04T02:18:49.573Z,19.50
2023-02-04T02:19:49.617Z,19.50
2023-02-04T02:20:49.626Z,19.50
2023-02-04T02:21:49.645Z,19.50
2023-02-04T02:22:49.661Z,19.50
2023-02-04T02:23:49.675Z,19.50
2023-02-04T02:24:49.689Z,19.50
2023-02-04T02:25:49.706Z,19.50
2023-02-04T02:26:49.736Z,19.50
2023-02-04T02:27:49.816Z,19.50
2023-02-04T02:28:49.803Z,19.50
2023-02-04T02:29:49.787Z,19.50
2023-02-04T02:30:49.923Z,19.50
2023-02-04T02:31:49.947Z,19.50
2023-02-04T02:32:49.844Z,19.49
2023-02-04T02:33:49.882Z,19.50
2023-02-04T02:34:49.885Z,19.49
2023-02-04T02:35:49.908Z,19.50
2023-02-04T02:36:49.943Z,19.49
2023-02-04T02:37:49.946Z,19.50
2023-02-04T02:38:49.968Z,19.49
2023-02-04T02:39:49.990Z,19.50
2023-02-04T03:24:50.824Z,19.51
2023-02-04T03:25:50.839Z,19.51
2023-02-04T03:26:50.868Z,19.51
2023-02-04T03:27:50.910Z,19.50
2023-02-04T03:28:50.889Z,19.50
2023-02-04T03:29:50.916Z,19.51
2023-02-04T03:30:51.008Z,19.50
2023-02-04T03:31:51.064Z,19.50
2023-02-04T03:32:50.972Z,19.50
2023-02-04T03:33:50.995Z,19.50
2023-02-04T03:34:51.004Z,19.50
2023-02-04T03:35:51.022Z,19.51
2023-02-04T03:36:51.055Z,19.50
2023-02-04T03:37:51.073Z,19.50
2023-02-04T03:38:51.092Z,19.50
2023-02-04T03:39:51.132Z,19.50
2023-02-04T03:40:51.135Z,19.50
2023-02-04T03:41:51.159Z,19.50
2023-02-04T03:42:51.182Z,19.50
2023-02-04T03:43:51.196Z,19.51
2023-02-04T03:44:51.209Z,19.50
2023-02-04T03:45:51.255Z,19.50
2023-02-04T03:46:51.239Z,19.51
2023-02-04T03:47:51.259Z,19.50
2023-02-04T03:48:51.278Z,19.50
2023-02-04T03:49:51.302Z,19.50
2023-02-04T03:50:51.315Z,19.50
2023-02-04T03:51:51.327Z,19.50
2023-02-04T03:52:51.363Z,19.50
2023-02-04T03:53:51.367Z,19.50
2023-02-04T03:54:51.399Z,19.50
2023-02-04T03:55:51.413Z,19.50
2023-02-04T03:56:51.436Z,19.51
2023-02-04T03:57:51.454Z,19.50
2023-02-04T03:58:51.479Z,19.51
2023-02-04T03:59:51.520Z,19.50
2023-02-04T04:00:51.517Z,19.50
2023-02-04T04:01:51.577Z,19.50
2023-02-04T04:02:51.601Z,19.50
2023-02-04T04:03:51.577Z,19.50
2023-02-04T04:04:51.600Z,19.49
2023-02-04T04:05:51.605Z,19.49
2023-02-04T04:06:51.634Z,19.50
2023-02-04T04:07:51.646Z,19.49
2023-02-04T04:08:51.685Z,19.49
2023-02-04T04:09:51.712Z,19.49
2023-02-04T04:10:51.731Z,19.48
2023-02-04T04:11:51.748Z,19.49
2023-02-04T04:12:51.769Z,19.49
2023-02-04T04:13:51.788Z,19.49
2023-02-04T04:14:51.812Z,19.50
2023-02-04T04:15:51.874Z,19.49
2023-02-04T04:16:51.835Z,19.49
2023-02-04T04:17:51.865Z,19.48
2023-02-04T04:18:51.877Z,19.50
2023-02-04T04:19:51.949Z,19.49
2023-02-04T04:20:51.925Z,19.49
2023-02-04T04:21:51.951Z,19.49
2023-02-04T04:22:51.970Z,19.49
2023-02-04T04:23:52.040Z,19.49
2023-02-04T04:24:52.015Z,19.49
2023-02-04T04:25:52.032Z,19.49
2023-02-04T04:26:52.054Z,19.50
2023-02-04T04:27:52.142Z,19.50
2023-02-04T04:28:52.075Z,19.50
2023-02-04T04:29:52.102Z,19.50
2023-02-04T04:30:52.146Z,19.50
2023-02-04T04:31:52.201Z,19.50
2023-02-04T04:32:52.140Z,19.49
2023-02-04T04:33:52.160Z,19.50
2023-02-04T04:34:52.172Z,19.49
2023-02-04T04:35:52.187Z,19.50
2023-02-04T04:36:52.215Z,19.50
2023-02-04T04:37:52.226Z,19.49
2023-02-04T04:38:52.250Z,19.49
2023-02-04T04:39:52.267Z,19.49
2023-02-04T04:40:52.305Z,19.49
2023-02-04T04:41:52.297Z,19.49
2023-02-04T04:42:52.332Z,19.50
2023-02-04T04:43:52.346Z,19.49
2023-02-04T04:44:52.370Z,19.49
2023-02-04T04:45:52.389Z,19.49
2023-02-04T04:46:52.481Z,19.49
2023-02-04T04:47:52.434Z,19.49
2023-02-04T04:48:52.448Z,19.49
2023-02-04T04:49:52.484Z,19.49
2023-02-04T04:50:52.505Z,19.50
2023-02-04T06:56:55.080Z,19.47
2023-02-04T06:57:55.097Z,19.47
2023-02-04T06:58:55.108Z,19.47
2023-02-04T06:59:55.132Z,19.48
2023-02-04T07:01:55.162Z,19.48
2023-02-04T07:02:55.225Z,19.48
2023-02-04T07:03:55.208Z,19.47
2023-02-04T07:04:55.220Z,19.47
2023-02-04T07:05:55.245Z,19.47
2023-02-04T07:06:55.262Z,19.48
2023-02-04T07:07:55.284Z,19.48
2023-02-04T07:08:55.312Z,19.48
2023-02-04T07:09:55.333Z,19.48
2023-02-04T07:10:55.351Z,19.48
2023-02-04T07:11:55.370Z,19.48
2023-02-04T07:12:55.392Z,19.48
2023-02-04T07:13:55.412Z,19.48
2023-02-04T07:14:55.441Z,19.48
2023-02-04T07:15:55.499Z,19.48
2023-02-04T07:16:55.476Z,19.48
2023-02-04T07:17:55.499Z,19.48
2023-02-04T07:18:55.526Z,19.48
2023-02-04T07:19:55.535Z,19.48
2023-02-04T07:20:55.560Z,19.47
2023-02-04T07:21:55.583Z,19.48
2023-02-04T09:46:58.160Z,19.48
2023-02-04T09:47:58.144Z,19.48
2023-02-04T09:48:58.169Z,19.49
2023-02-04T09:49:58.196Z,19.48
2023-02-04T09:50:58.214Z,19.48
2023-02-04T09:51:58.242Z,19.48
2023-02-04T09:52:58.277Z,19.48
2023-02-04T09:53:58.271Z,19.48
2023-02-04T09:54:58.292Z,19.49
2023-02-04T09:55:58.320Z,19.49
2023-02-04T09:56:58.340Z,19.48
2023-02-04T09:57:58.359Z,19.48
2023-02-04T09:58:58.389Z,19.49
2023-02-04T09:59:58.405Z,19.49
2023-02-04T10:00:58.456Z,19.49
2023-02-04T10:01:58.450Z,19.49
2023-02-04T10:02:58.469Z,19.49
2023-02-04T10:03:58.541Z,19.49
2023-02-04T10:04:58.516Z,19.49
2023-02-04T10:05:58.536Z,19.49
2023-02-04T10:06:58.674Z,19.48
2023-02-04T10:07:58.580Z,19.48
2023-02-04T10:08:58.593Z,19.48
2023-02-04T10:09:58.622Z,19.48
2023-02-04T10:10:58.632Z,19.49
2023-02-04T10:11:58.655Z,19.48
2023-02-04T10:12:58.670Z,19.50
2023-02-04T10:13:58.748Z,19.49
2023-02-04T10:14:58.717Z,19.49
2023-02-04T10:15:58.740Z,19.49
2023-02-04T10:16:59.652Z,19.49
2023-02-04T10:17:58.772Z,19.48
2023-02-04T10:18:58.799Z,19.49
2023-02-04T10:19:58.811Z,19.49
2023-02-04T10:20:58.826Z,19.49
2023-02-04T10:21:58.904Z,19.49
2023-02-04T10:22:58.862Z,19.49
2023-02-04T10:23:58.898Z,19.50
2023-02-04T10:24:58.899Z,19.50
2023-02-04T10:25:58.926Z,19.50
2023-02-04T10:26:58.952Z,19.50
2023-02-04T10:27:59.009Z,19.50
2023-02-04T10:28:58.991Z,19.50
2023-02-04T10:29:59.016Z,19.50
2023-02-04T10:30:59.088Z,19.50
2023-02-04T10:31:59.141Z,19.50
2023-02-04T10:32:59.068Z,19.51
2023-02-04T10:33:59.082Z,19.52
2023-02-04T10:34:59.103Z,19.51
2023-02-04T10:35:59.120Z,19.52
2023-02-04T10:36:59.137Z,19.51
2023-02-04T10:37:59.153Z,19.52
2023-02-04T10:38:59.176Z,19.51
2023-02-04T10:39:59.173Z,19.52
2023-02-04T10:40:59.200Z,19.52
2023-02-04T10:41:59.224Z,19.53
2023-02-04T10:42:59.222Z,19.52
2023-02-04T10:43:59.241Z,19.52
2023-02-04T10:44:59.259Z,19.53
2023-02-04T10:45:59.930Z,19.53
2023-02-04T10:46:59.286Z,19.53
2023-02-04T10:47:59.288Z,19.53
2023-02-04T10:48:59.317Z,19.53
2023-02-04T10:49:59.320Z,19.53
2023-02-04T10:50:59.343Z,19.53
2023-02-04T10:51:59.361Z,19.54
2023-02-04T10:52:59.383Z,19.54
2023-02-04T10:53:59.397Z,19.54
2023-02-04T10:54:59.409Z,19.54
2023-02-04T10:55:59.419Z,19.54
2023-02-04T10:56:59.445Z,19.54
2023-02-04T10:57:59.445Z,19.54
2023-02-04T10:58:59.462Z,19.53
2023-02-04T10:59:59.493Z,19.55
2023-02-04T11:00:59.522Z,19.55
2023-02-04T11:01:59.513Z,19.55
2023-02-04T11:02:59.592Z,19.55
2023-02-04T11:03:59.535Z,19.55
2023-02-04T11:04:59.550Z,19.55
2023-02-04T11:05:59.559Z,19.55
2023-02-04T11:06:59.678Z,19.55
2023-02-04T11:07:59.581Z,19.55
2023-02-04T11:08:59.598Z,19.56
2023-02-04T11:09:59.623Z,19.56
2023-02-04T11:10:59.621Z,19.55
2023-02-04T11:11:59.640Z,19.56
2023-02-04T11:12:59.657Z,19.56
2023-02-04T11:14:00.425Z,19.56
2023-02-04T11:14:59.686Z,19.56
2023-02-04T11:15:59.714Z,19.56
2023-02-04T11:16:59.773Z,19.57
2023-02-04T11:17:59.724Z,19.56
2023-02-04T11:18:59.749Z,19.57
2023-02-04T11:19:59.745Z,19.57
2023-02-04T11:20:59.765Z,19.57
2023-02-04T11:21:59.785Z,19.57
2023-02-04T11:22:59.779Z,19.57
2023-02-04T11:23:59.800Z,19.58
2023-02-04T11:24:59.836Z,19.57
2023-02-04T11:25:59.824Z,19.58
2023-02-04T11:26:59.883Z,19.58
2023-02-04T11:27:59.878Z,19.58
2023-02-04T11:28:59.857Z,19.58
2023-02-04T11:29:59.870Z,19.58
2023-02-04T11:31:00.023Z,19.58
2023-02-04T11:31:59.958Z,19.58
2023-02-04T11:32:59.906Z,19.58
2023-02-04T11:33:59.921Z,19.59
2023-02-04T11:34:59.923Z,19.59
2023-02-04T11:35:59.933Z,19.59
2023-02-04T11:36:59.940Z,19.60
2023-02-04T11:37:59.957Z,19.59
2023-02-04T11:38:59.952Z,19.59
2023-02-04T11:39:59.983Z,19.59
2023-02-04T11:40:59.988Z,19.59
2023-02-04T11:41:59.983Z,19.60
2023-02-04T11:43:00.005Z,19.59
2023-02-04T11:44:00.024Z,19.59
2023-02-04T11:45:00.032Z,19.59
2023-02-04T11:46:00.076Z,19.60
2023-02-04T11:47:00.041Z,19.60
2023-02-04T11:48:00.052Z,19.59
2023-02-04T11:49:00.051Z,19.60
2023-02-04T11:50:00.050Z,19.61
2023-02-04T11:51:00.110Z,19.62
2023-02-04T11:52:00.116Z,19.61
2023-02-04T11:53:00.138Z,19.61
2023-02-04T11:54:00.125Z,19.61
2023-02-04T11:55:00.119Z,19.62
2023-02-04T11:56:00.157Z,19.61
2023-02-04T11:57:00.135Z,19.62
2023-02-04T11:58:00.124Z,19.62
2023-02-04T11:59:00.137Z,19.62
2023-02-04T12:00:00.157Z,19.62
2023-02-04T12:01:00.133Z,19.62
2023-02-04T12:02:00.136Z,19.62
2023-02-04T12:03:00.258Z,19.62
2023-02-04T12:04:00.216Z,19.62
2023-02-04T12:05:00.162Z,19.61
2023-02-04T12:06:00.181Z,19.61
2023-02-04T12:07:00.183Z,19.62
2023-02-04T12:08:00.199Z,19.61
2023-02-04T12:09:00.218Z,19.61
2023-02-04T12:10:00.233Z,19.62
2023-02-04T12:11:00.232Z,19.62
2023-02-04T12:12:00.250Z,19.62
2023-02-04T12:13:00.259Z,19.62
2023-02-04T12:14:00.271Z,19.61
2023-02-04T12:15:00.279Z,19.63
2023-02-04T12:16:00.361Z,19.61
2023-02-04T12:17:00.303Z,19.61
2023-02-04T12:18:00.294Z,19.62
2023-02-04T12:19:00.306Z,19.62
2023-02-04T12:20:00.319Z,19.61
2023-02-04T12:21:00.324Z,19.61
2023-02-04T12:22:00.339Z,19.61
2023-02-04T12:23:00.340Z,19.61
2023-02-04T12:24:00.349Z,19.61
2023-02-04T12:25:00.354Z,19.61
2023-02-04T12:26:00.369Z,19.61
2023-02-04T12:27:00.366Z,19.61
2023-02-04T12:28:00.408Z,19.61
2023-02-04T12:29:00.383Z,19.62
2023-02-04T12:30:00.397Z,19.61
2023-02-04T12:31:00.448Z,19.62
2023-02-04T12:32:00.444Z,19.61
2023-02-04T12:33:00.448Z,19.61
2023-02-04T12:34:00.450Z,19.62
2023-02-04T12:35:00.466Z,19.62
2023-02-04T12:36:00.428Z,19.62
2023-02-04T12:37:00.470Z,19.61
2023-02-04T12:38:00.479Z,19.61
2023-02-04T12:39:00.475Z,19.62
2023-02-04T12:40:00.512Z,19.61
2023-02-04T12:41:00.506Z,19.62
2023-02-04T12:42:00.531Z,19.61
2023-02-04T12:43:00.558Z,19.62
2023-02-04T12:44:00.544Z,19.62
2023-02-04T12:45:00.623Z,19.62
2023-02-04T12:46:00.540Z,19.62
2023-02-04T12:47:00.626Z,19.62
2023-02-04T12:48:00.626Z,19.62
2023-02-04T12:49:00.570Z,19.63
2023-02-04T13:39:01.013Z,19.60
2023-02-04T13:44:01.089Z,19.61
2023-02-04T13:47:01.104Z,19.60
2023-02-04T13:48:01.108Z,19.60
2023-02-04T13:49:01.116Z,19.60
2023-02-04T13:50:01.130Z,19.60
2023-02-04T13:51:01.138Z,19.60
2023-02-04T13:52:01.156Z,19.60
2023-02-04T13:53:01.170Z,19.60
2023-02-04T13:54:01.261Z,19.60
2023-02-04T13:55:01.217Z,19.59
2023-02-04T13:56:01.208Z,19.60
2023-02-04T13:57:01.237Z,19.59
2023-02-04T13:58:01.221Z,19.60
2023-02-04T13:59:01.228Z,19.59
2023-02-04T14:00:01.234Z,19.60
2023-02-04T14:01:01.287Z,19.60
2023-02-04T14:02:01.322Z,19.59
2023-02-04T14:03:01.257Z,19.60
2023-02-04T14:04:01.271Z,19.60
2023-02-04T14:05:01.286Z,19.61
2023-02-04T14:06:01.293Z,19.60
2023-02-04T14:07:01.299Z,19.60
2023-02-04T14:08:01.297Z,19.61
2023-02-04T14:09:01.327Z,19.60
2023-02-04T14:10:01.325Z,19.60
2023-02-04T14:11:01.333Z,19.60
2023-02-04T14:12:01.332Z,19.61
2023-02-04T14:13:01.357Z,19.60
2023-02-04T14:14:01.353Z,19.59
2023-02-04T14:15:01.396Z,19.59
2023-02-04T14:16:01.376Z,19.60
2023-02-04T14:17:01.380Z,19.59
2023-02-04T14:18:01.385Z,19.59
2023-02-04T14:19:01.394Z,19.60
2023-02-04T14:20:01.415Z,19.60
2023-02-04T14:21:01.428Z,19.58
2023-02-04T14:22:01.435Z,19.60
2023-02-04T14:23:01.447Z,19.60
2023-02-04T14:24:01.493Z,19.60
2023-02-04T14:25:01.486Z,19.60
2023-02-04T14:26:01.548Z,19.59
2023-02-04T14:27:01.480Z,19.59
2023-02-04T14:28:01.509Z,19.59
2023-02-04T14:29:01.505Z,19.59
2023-02-04T14:30:01.587Z,19.59
2023-02-04T14:31:01.560Z,19.59
2023-02-04T14:32:01.630Z,19.59
2023-02-04T14:33:01.551Z,19.59
2023-02-04T14:34:01.553Z,19.59
2023-02-04T14:35:01.556Z,19.59
2023-02-04T14:36:01.559Z,19.59
2023-02-04T14:37:01.577Z,19.59
2023-02-04T14:38:01.599Z,19.58
2023-02-04T14:39:01.613Z,19.59
2023-02-04T14:40:01.612Z,19.58
2023-02-04T14:41:01.627Z,19.59
2023-02-04T14:42:01.640Z,19.58
2023-02-04T14:43:01.640Z,19.59
2023-02-04T14:44:01.663Z,19.58
2023-02-04T14:45:01.671Z,19.58
2023-02-04T14:46:02.732Z,19.57
2023-02-04T14:47:01.695Z,19.57
2023-02-04T14:48:01.706Z,19.56
2023-02-04T14:49:01.715Z,19.57
2023-02-04T14:50:01.727Z,19.57
2023-02-04T14:51:01.750Z,19.57
2023-02-04T14:52:01.746Z,19.56
2023-02-04T14:53:01.769Z,19.57
2023-02-04T14:54:01.775Z,19.57
2023-02-04T14:55:01.788Z,19.57
2023-02-04T14:56:01.815Z,19.57
2023-02-04T14:57:01.819Z,19.56
2023-02-04T14:58:01.925Z,19.56
2023-02-04T14:59:01.843Z,19.57
2023-02-04T15:00:01.891Z,19.57
2023-02-04T15:01:01.901Z,19.56
2023-02-04T15:02:01.987Z,19.56
2023-02-04T15:03:01.878Z,19.56
2023-02-04T15:04:01.903Z,19.56
2023-02-04T15:05:01.897Z,19.56
2023-02-04T15:06:01.922Z,19.56
2023-02-04T15:07:01.920Z,19.56
2023-02-04T15:08:01.937Z,19.56
2023-02-04T15:09:01.940Z,19.56
2023-02-04T15:10:01.958Z,19.56
2023-02-04T15:11:01.967Z,19.56
2023-02-04T15:12:01.980Z,19.56
2023-02-04T15:13:02.009Z,19.55
2023-02-04T15:14:02.516Z,19.55
2023-02-04T15:15:02.025Z,19.55
2023-02-04T15:16:02.042Z,19.55
2023-02-04T15:17:02.274Z,19.55
2023-02-04T15:18:02.091Z,19.54
2023-02-04T15:19:02.092Z,19.55
2023-02-04T15:20:02.107Z,19.55
2023-02-04T15:21:02.120Z,19.55
2023-02-04T15:22:02.136Z,19.55
2023-02-04T15:23:02.142Z,19.55
2023-02-04T15:24:02.160Z,19.54
2023-02-04T15:25:02.175Z,19.55
2023-02-04T15:26:02.198Z,19.55
2023-02-04T15:27:02.214Z,19.54
2023-02-04T15:28:02.234Z,19.54
2023-02-04T15:29:02.237Z,19.54
2023-02-04T15:30:02.248Z,19.53
2023-02-04T15:31:02.367Z,19.54
2023-02-04T15:32:02.322Z,19.54
2023-02-04T15:33:02.305Z,19.53
2023-02-04T15:34:02.326Z,19.54
2023-02-04T15:35:02.350Z,19.54
2023-02-04T15:36:02.370Z,19.53
2023-02-04T15:37:02.393Z,19.53
2023-02-04T15:38:02.405Z,19.54
2023-02-04T15:39:02.425Z,19.55
2023-02-04T15:40:02.449Z,19.54
2023-02-04T15:41:02.472Z,19.53
2023-02-04T15:42:02.556Z,19.53
2023-02-04T15:43:02.519Z,19.53
2023-02-04T15:44:02.527Z,19.53
2023-02-04T15:45:02.546Z,19.54
2023-02-04T15:46:02.602Z,19.53
2023-02-04T15:47:02.612Z,19.53
2023-02-04T15:48:02.608Z,19.53
2023-02-04T15:49:02.640Z,19.53
2023-02-04T15:50:02.639Z,19.52
2023-02-04T15:51:02.755Z,19.53
2023-02-04T15:52:02.674Z,19.53
2023-02-04T15:53:02.691Z,19.53
2023-02-04T15:54:02.726Z,19.53
2023-02-04T15:55:02.742Z,19.53
2023-02-04T15:56:03.535Z,19.53
2023-02-04T15:58:02.807Z,19.53
2023-02-04T15:59:02.839Z,19.53
2023-02-04T16:00:02.854Z,19.53
2023-02-04T16:01:02.916Z,19.53
2023-02-04T16:02:02.897Z,19.53
2023-02-04T16:03:02.937Z,19.53
2023-02-04T16:04:02.941Z,19.53
2023-02-04T16:05:02.964Z,19.53
2023-02-04T16:06:02.974Z,19.53
2023-02-04T16:07:03.042Z,19.53
2023-02-04T16:08:03.011Z,19.53
2023-02-04T20:28:08.159Z,19.50
2023-02-04T20:29:08.159Z,19.49
2023-02-04T20:30:09.341Z,19.50
2023-02-04T20:31:08.269Z,19.50
2023-02-04T20:32:08.230Z,19.50
2023-02-04T20:33:08.263Z,19.49
2023-02-04T20:34:08.446Z,19.49
2023-02-04T20:35:08.317Z,19.50
2023-02-04T20:36:08.337Z,19.50
2023-02-04T20:37:08.362Z,19.49
2023-02-04T20:38:08.391Z,19.50
2023-02-04T20:39:08.413Z,19.50
2023-02-04T20:40:08.442Z,19.50
2023-02-04T20:41:08.453Z,19.50
2023-02-04T20:42:08.484Z,19.50
2023-02-04T20:43:08.515Z,19.49
2023-02-04T20:44:08.515Z,19.50
2023-02-04T20:45:08.539Z,19.49
2023-02-04T20:46:08.588Z,19.49
2023-02-04T20:47:08.588Z,19.50
2023-02-04T20:48:08.612Z,19.50
2023-02-04T20:49:08.631Z,19.49
2023-02-04T20:50:08.664Z,19.50
2023-02-04T20:51:08.681Z,19.49
2023-02-04T20:52:08.708Z,19.49
2023-02-04T20:53:08.723Z,19.49
2023-02-04T20:54:08.761Z,19.49
2023-02-04T20:55:08.786Z,19.49
2023-02-04T20:56:08.802Z,19.49
2023-02-04T20:57:08.832Z,19.49
2023-02-04T20:58:08.856Z,19.49
2023-02-04T20:59:08.874Z,19.48
2023-02-04T21:00:08.907Z,19.49
2023-02-04T21:01:08.958Z,19.49
2023-02-04T21:02:08.938Z,19.49
2023-02-04T21:03:08.943Z,19.50
2023-02-04T21:04:08.989Z,19.49
2023-02-04T21:05:08.993Z,19.49
2023-02-04T21:06:09.014Z,19.49
2023-02-04T21:07:09.050Z,19.49
2023-02-04T21:08:09.072Z,19.49
2023-02-04T21:09:09.086Z,19.49
2023-02-04T21:10:09.137Z,19.49
2023-02-04T21:11:09.147Z,19.48
2023-02-04T21:12:09.174Z,19.49
2023-02-04T21:13:09.206Z,19.49
2023-02-04T21:14:09.221Z,19.48
2023-02-04T21:15:09.240Z,19.48
2023-02-04T21:16:09.292Z,19.49
2023-02-04T21:17:09.274Z,19.48
2023-02-04T21:18:09.308Z,19.48
2023-02-04T21:19:10.071Z,19.48
2023-02-04T21:20:09.368Z,19.49
2023-02-04T21:21:09.451Z,19.48
2023-02-04T21:22:09.417Z,19.48
2023-02-04T21:23:09.450Z,19.49
2023-02-04T21:24:09.475Z,19.49
2023-02-04T21:25:09.517Z,19.49
2023-02-04T21:26:09.542Z,19.47
2023-02-04T21:27:09.562Z,19.48
2023-02-04T21:28:09.669Z,19.49
2023-02-04T21:29:09.604Z,19.49
2023-02-04T21:30:09.627Z,19.48
2023-02-04T21:31:09.717Z,19.49
2023-02-04T21:32:09.696Z,19.49
2023-02-04T21:33:09.714Z,19.49
2023-02-04T21:34:09.731Z,19.50
2023-02-04T21:35:09.752Z,19.49
2023-02-04T21:36:09.773Z,19.49
2023-02-04T21:37:09.798Z,19.49
2023-02-04T21:38:09.820Z,19.49
2023-02-04T21:39:09.847Z,19.49
2023-02-04T21:40:09.856Z,19.49
2023-02-04T21:41:09.881Z,19.49
2023-02-04T21:42:10.040Z,19.50
2023-02-04T21:43:09.931Z,19.49
2023-02-04T21:44:09.973Z,19.50
2023-02-04T21:45:09.987Z,19.49
2023-02-04T21:46:10.028Z,19.49
2023-02-04T21:47:10.039Z,19.49
2023-02-04T21:48:10.050Z,19.49
2023-02-04T21:49:10.060Z,19.49
2023-02-04T21:50:10.081Z,19.49
2023-02-04T21:51:10.149Z,19.49
2023-02-04T21:52:10.143Z,19.49
2023-02-04T21:53:10.157Z,19.49
2023-02-04T21:54:10.171Z,19.49
2023-02-04T21:55:10.197Z,19.50
2023-02-04T21:56:10.210Z,19.49
2023-02-04T21:57:10.251Z,19.49
2023-02-04T21:58:10.266Z,19.49
2023-02-04T21:59:10.276Z,19.49
2023-02-04T22:00:10.327Z,19.49
2023-02-04T22:01:10.331Z,19.49
2023-02-04T22:02:10.344Z,19.49
2023-02-04T22:03:10.380Z,19.49
2023-02-04T22:04:10.419Z,19.49
2023-02-04T22:05:10.424Z,19.49
2023-02-04T22:06:10.441Z,19.48
2023-02-04T22:07:10.470Z,19.49
2023-02-04T22:08:10.497Z,19.49
2023-02-04T22:09:10.514Z,19.48
2023-02-04T22:10:10.538Z,19.48
2023-02-04T22:11:10.576Z,19.49
2023-02-04T22:12:10.588Z,19.48
2023-02-04T22:13:10.635Z,19.49
2023-02-04T22:14:10.642Z,19.48
2023-02-04T22:15:10.660Z,19.48
2023-02-04T22:16:10.755Z,19.48
2023-02-04T22:17:10.709Z,19.49
2023-02-04T22:18:10.742Z,19.49
2023-02-04T22:19:10.772Z,19.48
2023-02-04T22:20:10.782Z,19.48
2023-02-04T22:21:10.823Z,19.48
2023-02-04T22:22:10.827Z,19.48
2023-02-04T22:23:10.849Z,19.49
2023-02-04T22:24:10.878Z,19.49
2023-02-04T22:25:10.899Z,19.48
2023-02-04T22:26:10.939Z,19.48
2023-02-04T22:27:10.941Z,19.48
2023-02-04T22:28:10.987Z,19.48
2023-02-04T22:29:10.998Z,19.48
2023-02-04T22:30:11.006Z,19.48
2023-02-04T22:31:11.194Z,19.48
2023-02-04T22:32:11.055Z,19.48
2023-02-04T22:33:11.085Z,19.49
2023-02-04T22:34:11.105Z,19.48
2023-02-04T22:35:11.136Z,19.48
2023-02-04T22:36:11.155Z,19.49
2023-02-04T22:37:11.181Z,19.48
2023-02-04T22:38:11.201Z,19.48
2023-02-04T22:39:11.218Z,19.49
2023-02-04T22:40:11.239Z,19.49
2023-02-04T22:41:11.264Z,19.48
2023-02-04T22:42:11.287Z,19.49
2023-02-04T22:43:11.321Z,19.49
2023-02-04T22:44:11.333Z,19.49
2023-02-04T22:45:11.375Z,19.49
2023-02-04T22:46:11.418Z,19.48
2023-02-04T22:47:11.407Z,19.49
2023-02-04T22:48:12.202Z,19.49
2023-02-04T22:49:11.469Z,19.48
2023-02-04T22:50:11.477Z,19.48
2023-02-04T22:51:11.513Z,19.48
2023-02-04T22:52:11.533Z,19.48
2023-02-04T22:53:11.552Z,19.49
2023-02-04T22:54:11.591Z,19.48
2023-02-04T22:55:11.608Z,19.48
2023-02-04T22:56:11.629Z,19.48
2023-02-04T22:57:11.708Z,19.48
2023-02-04T22:58:11.671Z,19.48
2023-02-04T22:59:11.701Z,19.49
2023-02-04T23:00:11.715Z,19.49
2023-02-04T23:01:11.750Z,19.49
2023-02-04T23:02:11.802Z,19.49
2023-02-04T23:03:11.765Z,19.49
2023-02-04T23:04:11.786Z,19.49
2023-02-04T23:05:11.800Z,19.49
2023-02-04T23:06:11.829Z,19.49
2023-02-04T23:07:11.859Z,19.49
2023-02-04T23:08:11.875Z,19.49
2023-02-04T23:09:11.898Z,19.49
2023-02-04T23:10:11.929Z,19.48
2023-02-04T23:11:11.951Z,19.49
2023-02-04T23:12:11.981Z,19.49
2023-02-04T23:13:12.027Z,19.49
2023-02-04T23:14:12.028Z,19.48
2023-02-04T23:15:12.061Z,19.49
2023-02-04T23:16:12.098Z,19.48
2023-02-04T23:17:12.103Z,19.49
2023-02-04T23:18:12.132Z,19.49
2023-02-04T23:19:12.166Z,19.49
2023-02-04T23:20:12.193Z,19.49
2023-02-04T23:21:12.205Z,19.49
2023-02-04T23:22:12.238Z,19.49
2023-02-04T23:23:12.251Z,19.49
2023-02-04T23:24:12.277Z,19.49
2023-02-04T23:25:12.297Z,19.49
2023-02-04T23:26:12.321Z,19.48
2023-02-04T23:27:12.329Z,19.49
2023-02-04T23:28:12.379Z,19.49
2023-02-04T23:29:12.384Z,19.48
2023-02-04T23:30:12.404Z,19.49
2023-02-04T23:31:12.438Z,19.48
2023-02-04T23:32:12.452Z,19.49
2023-02-04T23:33:12.463Z,19.48
